Time;durP1;ratioP1;P1;durP2;ratioP2;P2;SDS_P1;SDS_P2;PMS_P1;PMS_P2;Temp;Humidity;BMP_temperature;BMP_pressure;BME280_temperature;BME280_humidity;BME280_pressure;Samples;Min_cycle;Max_cycle;Signal;HPM_P1;HPM_P2
2021/07/06 00:01:12;;;;;;;4.17;3.43;;;;;;;21.36;76.61;100464.16;5049081;28;20212;-68
2021/07/06 00:03:41;;;;;;;8.43;3.83;;;;;;;21.35;76.93;100467.94;5048914;28;20213;-70
2021/07/06 00:06:10;;;;;;;4.43;3.27;;;;;;;21.28;77.14;100461.50;5049089;28;20209;-70
2021/07/06 00:08:38;;;;;;;6.07;3.70;;;;;;;21.25;77.42;100450.94;5048927;28;20567;-70
2021/07/06 00:11:06;;;;;;;5.83;3.80;;;;;;;21.21;77.52;100450.41;5049032;28;20212;-70
2021/07/06 00:13:34;;;;;;;3.83;3.40;;;;;;;21.14;77.40;100448.59;5048528;28;20204;-70
2021/07/06 00:16:02;;;;;;;5.33;3.50;;;;;;;21.11;77.96;100449.75;5048565;28;20246;-70
2021/07/06 00:18:31;;;;;;;3.77;3.30;;;;;;;21.09;77.89;100454.56;5048894;28;20292;-70
2021/07/06 00:21:01;;;;;;;7.07;3.67;;;;;;;21.10;77.61;100456.25;5048682;28;20206;-70
2021/07/06 00:23:29;;;;;;;4.67;3.90;;;;;;;21.04;78.32;100449.63;5048705;28;20201;-69
2021/07/06 00:25:57;;;;;;;6.13;3.70;;;;;;;20.95;78.38;100447.13;5036119;28;20282;-69
2021/07/06 00:28:25;;;;;;;4.67;3.67;;;;;;;20.98;78.50;100444.03;5048923;28;20651;-70
2021/07/06 00:30:54;;;;;;;5.57;3.67;;;;;;;20.98;78.49;100449.50;5048763;28;20329;-70
2021/07/06 00:33:22;;;;;;;3.83;3.43;;;;;;;20.83;78.66;100424.84;5048226;28;20233;-70
2021/07/06 00:35:50;;;;;;;5.00;3.53;;;;;;;20.93;78.94;100443.72;5047582;28;20243;-70
2021/07/06 00:38:20;;;;;;;5.93;3.73;;;;;;;20.94;78.29;100443.56;5064437;28;20187;-67
2021/07/06 00:40:48;;;;;;;6.50;3.60;;;;;;;20.97;78.49;100436.88;5035244;28;20661;-68
2021/07/06 00:43:16;;;;;;;5.57;3.93;;;;;;;20.99;78.11;100429.34;5049939;28;20220;-68
2021/07/06 00:45:44;;;;;;;4.50;3.73;;;;;;;21.00;78.01;100426.44;5073001;28;20216;-67
2021/07/06 00:48:12;;;;;;;9.10;4.53;;;;;;;20.99;78.30;100421.16;5055185;28;20533;-68
2021/07/06 00:50:41;;;;;;;6.83;3.73;;;;;;;21.00;77.70;100414.69;5050020;28;20206;-67
2021/07/06 00:53:09;;;;;;;5.10;3.80;;;;;;;20.90;76.91;100404.00;5049157;28;20205;-67
2021/07/06 00:55:38;;;;;;;5.47;4.17;;;;;;;20.99;76.80;100422.03;5061246;28;20321;-68
2021/07/06 00:58:06;;;;;;;5.13;3.67;;;;;;;21.00;76.58;100412.78;5047781;28;20217;-67
2021/07/06 01:00:34;;;;;;;5.47;3.93;;;;;;;21.01;76.66;100409.03;5047087;28;20209;-67
2021/07/06 01:03:04;;;;;;;6.13;4.20;;;;;;;20.99;76.74;100412.97;5045800;28;20343;-68
2021/07/06 01:05:32;;;;;;;4.73;3.70;;;;;;;20.99;76.69;100410.25;5043590;28;20190;-68
2021/07/06 01:08:00;;;;;;;5.40;4.20;;;;;;;20.96;76.95;100407.88;5046671;28;20205;-68
2021/07/06 01:10:29;;;;;;;6.73;4.20;;;;;;;20.92;76.55;100407.38;5040332;28;20229;-68
2021/07/06 01:12:58;;;;;;;4.43;3.83;;;;;;;20.96;75.67;100410.59;5043412;28;20996;-68
2021/07/06 01:15:28;;;;;;;5.90;4.20;;;;;;;20.85;74.76;100397.38;5044755;28;20217;-67
2021/07/06 01:18:01;;;;;;;8.47;4.33;;;;;;;20.95;75.05;100411.63;5038221;28;20216;-68
2021/07/06 01:20:30;;;;;;;5.27;4.07;;;;;;;20.95;74.54;100411.63;5047602;28;20201;-67
2021/07/06 01:23:00;;;;;;;4.93;4.00;;;;;;;20.93;75.01;100408.25;5046452;28;20202;-68
2021/07/06 01:25:28;;;;;;;6.00;3.70;;;;;;;20.78;75.04;100389.88;5046706;28;20228;-68
2021/07/06 01:28:00;;;;;;;5.17;3.87;;;;;;;20.90;74.40;100414.06;5047069;28;20213;-67
2021/07/06 01:30:28;;;;;;;5.63;3.80;;;;;;;20.88;73.75;100419.69;5047122;28;20221;-68
2021/07/06 01:32:56;;;;;;;6.20;4.20;;;;;;;20.87;73.02;100419.88;5049476;28;20206;-68
2021/07/06 01:35:25;;;;;;;6.07;4.20;;;;;;;20.85;74.15;100420.06;5051997;28;20206;-67
2021/07/06 01:37:55;;;;;;;6.67;3.90;;;;;;;20.78;74.62;100417.16;5046844;28;20201;-69
2021/07/06 01:40:27;;;;;;;4.87;3.77;;;;;;;20.58;75.97;100404.16;5032839;28;20217;-69
2021/07/06 01:42:56;;;;;;;6.03;4.30;;;;;;;20.42;77.55;100399.59;5034822;28;20255;-68
2021/07/06 01:45:27;;;;;;;4.97;3.70;;;;;;;20.38;77.62;100403.66;5033424;28;20294;-69
2021/07/06 01:47:57;;;;;;;5.60;4.23;;;;;;;20.38;76.50;100403.66;5033565;28;20205;-68
2021/07/06 01:50:27;;;;;;;5.90;4.20;;;;;;;20.37;76.40;100397.38;5041443;28;20449;-69
2021/07/06 01:52:57;;;;;;;10.07;4.53;;;;;;;20.34;76.54;100380.50;5034819;28;20221;-68
2021/07/06 01:55:30;;;;;;;5.07;4.10;;;;;;;20.32;75.71;100377.09;5036058;28;20249;-69
2021/07/06 01:58:01;;;;;;;7.70;3.93;;;;;;;20.38;75.32;100390.88;5032839;28;20278;-69
2021/07/06 02:00:31;;;;;;;6.00;4.13;;;;;;;20.36;75.63;100389.34;5034847;28;20194;-67
2021/07/06 02:03:00;;;;;;;7.43;4.23;;;;;;;20.35;75.13;100393.13;5032218;28;20195;-69
2021/07/06 02:05:33;;;;;;;5.47;4.23;;;;;;;20.30;74.96;100385.47;5036209;28;20202;-70
2021/07/06 02:08:02;;;;;;;5.40;3.80;;;;;;;20.29;74.97;100393.81;5031996;28;20400;-69
2021/07/06 02:10:33;;;;;;;5.63;4.33;;;;;;;20.24;74.76;100390.78;5040853;28;20560;-70
2021/07/06 02:13:03;;;;;;;5.63;4.07;;;;;;;20.19;75.66;100394.00;5051828;28;20202;-69
2021/07/06 02:15:31;;;;;;;6.57;4.20;;;;;;;20.05;75.18;100376.50;5046019;28;20226;-70
2021/07/06 02:17:59;;;;;;;5.33;4.37;;;;;;;20.14;74.64;100396.41;5044547;28;20210;-70
2021/07/06 02:20:28;;;;;;;5.03;3.67;;;;;;;20.12;74.94;100399.31;5050096;28;20205;-69
2021/07/06 02:22:56;;;;;;;4.83;3.80;;;;;;;20.09;74.44;100404.25;5046996;28;20206;-70
2021/07/06 02:25:24;;;;;;;5.83;4.10;;;;;;;20.05;75.02;100403.75;5045611;28;20198;-70
2021/07/06 02:27:53;;;;;;;4.70;3.63;;;;;;;20.04;74.74;100407.50;5051421;28;20711;-70
2021/07/06 02:30:24;;;;;;;4.10;3.40;;;;;;;20.02;74.27;100411.44;5045463;28;20197;-70
2021/07/06 02:32:53;;;;;;;5.50;3.73;;;;;;;19.99;74.91;100409.91;5045241;28;20669;-67
2021/07/06 02:35:26;;;;;;;5.13;3.80;;;;;;;19.97;74.76;100416.56;5050971;28;20588;-67
2021/07/06 02:37:55;;;;;;;8.37;4.17;;;;;;;19.94;74.10;100420.50;5041904;28;20634;-67
2021/07/06 02:40:24;;;;;;;8.23;3.93;;;;;;;19.93;73.91;100426.97;5051016;28;20241;-67
2021/07/06 02:42:54;;;;;;;5.20;4.03;;;;;;;19.90;74.55;100420.97;5042988;28;20221;-68
2021/07/06 02:45:22;;;;;;;5.00;4.10;;;;;;;19.84;75.16;100428.81;5043828;28;20198;-68
2021/07/06 02:47:51;;;;;;;6.03;3.80;;;;;;;19.78;74.83;100420.50;5043910;28;20579;-68
2021/07/06 02:50:21;;;;;;;5.80;4.03;;;;;;;19.79;75.47;100431.22;5042244;28;20205;-67
2021/07/06 02:52:49;;;;;;;7.40;4.10;;;;;;;19.73;75.29;100422.88;5049222;28;20198;-67
2021/07/06 02:55:18;;;;;;;8.87;3.93;;;;;;;19.68;76.00;100423.41;5042301;28;20211;-67
2021/07/06 02:57:47;;;;;;;5.07;3.90;;;;;;;19.67;75.75;100421.69;5044405;28;20313;-67
2021/07/06 03:00:22;;;;;;;7.97;4.00;;;;;;;19.68;75.23;100417.09;5040741;28;20290;-67
2021/07/06 03:02:52;;;;;;;4.50;3.70;;;;;;;19.70;74.11;100425.97;5047555;28;20673;-68
2021/07/06 03:05:22;;;;;;;5.47;3.90;;;;;;;19.72;74.48;100418.47;5044577;28;20272;-68
2021/07/06 03:07:52;;;;;;;5.07;3.73;;;;;;;19.76;74.62;100419.81;5046127;28;20198;-68
2021/07/06 03:10:23;;;;;;;5.83;4.23;;;;;;;20.00;75.51;100416.22;5041212;28;20190;-68
2021/07/06 03:12:52;;;;;;;4.67;3.90;;;;;;;20.31;76.21;100417.16;5042154;28;20563;-68
2021/07/06 03:15:23;;;;;;;5.33;4.30;;;;;;;20.66;76.08;100407.69;5046854;28;20194;-67
2021/07/06 03:17:51;;;;;;;15.40;4.33;;;;;;;21.14;75.90;100422.13;5042636;28;20252;-67
2021/07/06 03:20:23;;;;;;;4.37;3.47;;;;;;;21.26;74.71;100414.38;5040666;28;20598;-68
2021/07/06 03:22:52;;;;;;;4.03;3.50;;;;;;;21.24;74.63;100414.56;5035864;28;20198;-68
2021/07/06 03:25:22;;;;;;;4.40;3.80;;;;;;;21.23;74.16;100417.44;5034606;28;20669;-68
2021/07/06 03:27:51;;;;;;;5.20;3.90;;;;;;;21.11;74.08;100419.72;5036053;28;20659;-70
2021/07/06 03:30:22;;;;;;;5.53;3.67;;;;;;;21.17;74.44;100418.16;5048970;28;20541;-70
2021/07/06 03:32:53;;;;;;;6.00;4.10;;;;;;;21.18;74.24;100422.59;5041822;28;20206;-70
2021/07/06 03:35:22;;;;;;;4.47;3.40;;;;;;;21.18;73.99;100428.91;5036871;28;20198;-68
2021/07/06 03:37:50;;;;;;;7.67;4.20;;;;;;;21.18;74.31;100428.91;5044049;28;20783;-69
2021/07/06 03:40:19;;;;;;;5.57;4.17;;;;;;;21.19;73.91;100438.81;5046171;28;20228;-69
2021/07/06 03:42:49;;;;;;;4.40;3.63;;;;;;;21.15;74.90;100418.34;5045111;28;20256;-69
2021/07/06 03:45:17;;;;;;;5.20;4.23;;;;;;;21.22;74.74;100437.59;5043416;28;20708;-68
2021/07/06 03:47:48;;;;;;;5.00;3.83;;;;;;;21.22;74.86;100435.72;5045104;28;20201;-67
2021/07/06 03:50:20;;;;;;;5.07;4.10;;;;;;;21.18;75.47;100434.38;5048169;28;20217;-70
2021/07/06 03:52:50;;;;;;;4.77;3.93;;;;;;;21.06;75.42;100431.19;5039546;28;20394;-69
2021/07/06 03:55:19;;;;;;;5.10;3.93;;;;;;;21.02;75.64;100435.31;5040781;28;20222;-70
2021/07/06 03:57:48;;;;;;;6.73;4.10;;;;;;;20.98;75.83;100444.03;5043277;28;20324;-69
2021/07/06 04:00:20;;;;;;;6.30;3.93;;;;;;;21.03;75.83;100441.63;5043114;28;20194;-70
2021/07/06 04:02:50;;;;;;;6.43;3.80;;;;;;;21.00;76.01;100447.44;5047379;28;20205;-67
2021/07/06 04:05:18;;;;;;;4.83;3.83;;;;;;;20.98;75.75;100454.97;5042036;28;20205;-67
2021/07/06 04:07:46;;;;;;;5.30;4.03;;;;;;;21.03;75.72;100458.00;5041147;28;20194;-67
2021/07/06 04:10:18;;;;;;;4.87;3.90;;;;;;;21.03;75.53;100453.41;5055390;28;20251;-67
2021/07/06 04:12:48;;;;;;;4.13;3.70;;;;;;;21.01;75.48;100454.59;5042638;28;20614;-67
2021/07/06 04:15:18;;;;;;;7.50;4.27;;;;;;;20.84;75.79;100431.16;5035068;28;20213;-68
2021/07/06 04:17:46;;;;;;;5.57;3.77;;;;;;;21.01;75.85;100462.78;5033679;28;20314;-68
2021/07/06 04:20:18;;;;;;;4.60;3.90;;;;;;;21.03;76.45;100466.19;5037250;28;20198;-67
2021/07/06 04:22:48;;;;;;;5.43;4.20;;;;;;;21.07;75.75;100465.66;5046533;28;20245;-67
2021/07/06 04:25:17;;;;;;;6.60;4.30;;;;;;;21.11;75.91;100468.03;5046413;28;20267;-67
2021/07/06 04:27:46;;;;;;;5.23;4.03;;;;;;;21.07;76.16;100467.53;5054869;28;20255;-67
2021/07/06 04:30:16;;;;;;;4.30;3.73;;;;;;;21.05;76.35;100467.72;5056507;28;20197;-68
2021/07/06 04:32:44;;;;;;;5.07;4.17;;;;;;;20.80;77.19;100427.91;5057267;28;20230;-67
2021/07/06 04:35:13;;;;;;;5.20;4.13;;;;;;;21.01;76.94;100460.06;5057527;28;20289;-67
2021/07/06 04:37:43;;;;;;;5.53;4.40;;;;;;;21.02;77.53;100456.31;5054208;28;20953;-66
2021/07/06 04:40:12;;;;;;;6.40;3.97;;;;;;;21.05;77.12;100462.25;5052796;28;20194;-67
2021/07/06 04:42:40;;;;;;;5.73;4.13;;;;;;;20.85;77.67;100424.66;5054523;28;20566;-67
2021/07/06 04:45:10;;;;;;;6.90;4.27;;;;;;;21.09;77.06;100460.00;5053913;28;20557;-66
2021/07/06 04:47:38;;;;;;;6.17;4.30;;;;;;;21.15;77.22;100467.53;5057667;28;20301;-68
2021/07/06 04:50:09;;;;;;;6.47;4.23;;;;;;;21.18;76.77;100467.16;5040886;28;20718;-67
2021/07/06 04:52:40;;;;;;;6.17;4.13;;;;;;;21.16;77.63;100461.03;5040362;28;20214;-67
2021/07/06 04:55:10;;;;;;;5.10;3.90;;;;;;;21.20;77.60;100465.09;5035861;28;20222;-67
2021/07/06 04:57:39;;;;;;;8.87;3.83;;;;;;;21.21;77.53;100465.94;5032788;28;20218;-67
2021/07/06 05:00:08;;;;;;;6.10;4.10;;;;;;;21.25;77.88;100462.69;5039612;28;20193;-68
2021/07/06 05:02:36;;;;;;;6.03;3.90;;;;;;;21.29;77.48;100463.19;5030593;28;20210;-69
2021/07/06 05:05:06;;;;;;;10.30;3.73;;;;;;;21.44;76.70;100464.13;5039371;28;20711;-69
2021/07/06 05:07:35;;;;;;;5.00;3.80;;;;;;;21.56;76.40;100464.53;5036238;28;20807;-69
2021/07/06 05:10:05;;;;;;;4.40;3.60;;;;;;;21.69;76.83;100473.81;5047703;28;20281;-69
2021/07/06 05:12:35;;;;;;;4.20;3.30;;;;;;;21.85;75.70;100475.59;5043609;28;20195;-69
2021/07/06 05:15:05;;;;;;;5.60;3.37;;;;;;;21.82;76.56;100456.81;5038211;28;20206;-69
2021/07/06 05:17:34;;;;;;;5.43;3.40;;;;;;;21.97;75.98;100478.72;5035729;28;20712;-72
2021/07/06 05:20:03;;;;;;;3.57;3.20;;;;;;;21.90;76.33;100459.47;5031892;28;20236;-70
2021/07/06 05:22:31;;;;;;;4.77;3.17;;;;;;;22.04;76.73;100477.00;5043777;28;20197;-71
2021/07/06 05:24:59;;;;;;;4.57;3.60;;;;;;;22.01;77.05;100466.38;5044293;28;20252;-70
2021/07/06 05:27:27;;;;;;;3.87;3.00;;;;;;;22.23;76.40;100475.63;5037606;28;20562;-70
2021/07/06 05:29:57;;;;;;;6.43;3.40;;;;;;;22.35;75.77;100470.53;5031856;28;20277;-71
2021/07/06 05:32:25;;;;;;;6.87;3.30;;;;;;;22.49;75.24;100472.44;5037504;28;20264;-71
2021/07/06 05:34:53;;;;;;;4.63;3.17;;;;;;;22.33;75.78;100470.72;5034661;28;20857;-70
2021/07/06 05:37:22;;;;;;;6.20;3.40;;;;;;;22.30;75.76;100471.94;5039222;28;20933;-71
2021/07/06 05:39:50;;;;;;;3.97;3.40;;;;;;;22.30;75.54;100474.69;5044082;28;20729;-71
2021/07/06 05:42:18;;;;;;;4.03;3.50;;;;;;;22.21;75.69;100480.44;5039514;28;20197;-71
2021/07/06 05:44:46;;;;;;;3.83;3.33;;;;;;;22.23;75.84;100478.34;5042118;28;20201;-71
2021/07/06 05:47:16;;;;;;;4.70;3.33;;;;;;;22.26;75.21;100473.34;5030550;28;20202;-70
2021/07/06 05:49:44;;;;;;;4.97;3.00;;;;;;;22.29;75.80;100469.38;5032004;28;20672;-71
2021/07/06 05:52:13;;;;;;;5.57;3.10;;;;;;;22.22;75.90;100476.66;5032431;28;20206;-71
2021/07/06 05:54:41;;;;;;;6.27;3.17;;;;;;;22.20;75.76;100479.56;5033124;28;20198;-72
2021/07/06 05:57:13;;;;;;;5.47;3.23;;;;;;;22.22;75.83;100482.13;5041932;28;20195;-71
2021/07/06 05:59:41;;;;;;;9.10;3.50;;;;;;;22.10;76.47;100478.16;5032145;28;20226;-71
2021/07/06 06:02:09;;;;;;;4.20;3.50;;;;;;;22.08;76.85;100464.66;5032357;28;20692;-71
2021/07/06 06:04:38;;;;;;;4.70;3.77;;;;;;;22.32;76.33;100477.22;5038233;28;20239;-72
2021/07/06 06:07:06;;;;;;;4.43;3.13;;;;;;;22.45;76.01;100482.91;5042558;28;20198;-71
2021/07/06 06:09:34;;;;;;;5.40;3.50;;;;;;;22.56;75.14;100490.66;5047134;28;20658;-72
2021/07/06 06:12:03;;;;;;;6.37;3.60;;;;;;;22.54;76.11;100481.78;5042489;28;20210;-72
2021/07/06 06:14:31;;;;;;;6.00;3.20;;;;;;;22.71;75.51;100495.31;5046620;28;20207;-71
2021/07/06 06:16:59;;;;;;;5.40;3.17;;;;;;;22.84;75.32;100490.03;5041169;28;20218;-71
2021/07/06 06:19:28;;;;;;;5.00;3.27;;;;;;;22.95;73.46;100503.22;5043628;28;20223;-71
2021/07/06 06:21:58;;;;;;;5.60;3.00;;;;;;;23.05;72.32;100506.56;5043348;28;20232;-71
2021/07/06 06:24:26;;;;;;;4.50;3.30;;;;;;;23.04;72.31;100496.63;5048783;28;20206;-71
2021/07/06 06:26:54;;;;;;;3.20;2.73;;;;;;;23.18;72.52;100503.97;5051136;28;20210;-72
2021/07/06 06:29:22;;;;;;;4.67;3.00;;;;;;;23.31;72.61;100516.16;5045094;28;20197;-72
2021/07/06 06:31:50;;;;;;;7.03;2.80;;;;;;;23.35;71.29;100517.47;5043086;28;20237;-71
2021/07/06 06:34:19;;;;;;;6.07;3.07;;;;;;;23.40;70.25;100520.47;5046725;28;20202;-70
2021/07/06 06:36:47;;;;;;;4.10;3.17;;;;;;;23.32;70.70;100517.84;5044718;28;20691;-70
2021/07/06 06:39:16;;;;;;;6.93;3.43;;;;;;;23.46;72.61;100515.06;5046224;28;20210;-70
2021/07/06 06:41:44;;;;;;;6.93;3.50;;;;;;;23.63;73.26;100507.50;5047972;28;20198;-71
2021/07/06 06:44:12;;;;;;;7.67;3.80;;;;;;;23.84;72.73;100517.59;5047789;28;20213;-71
2021/07/06 06:46:40;;;;;;;5.03;3.30;;;;;;;24.01;71.78;100524.53;5051890;28;20213;-70
2021/07/06 06:49:09;;;;;;;4.13;3.50;;;;;;;24.20;70.21;100520.28;5048092;28;20190;-71
2021/07/06 06:51:37;;;;;;;5.00;3.33;;;;;;;24.45;69.46;100526.19;5044915;28;20206;-70
2021/07/06 06:54:05;;;;;;;3.63;3.27;;;;;;;24.74;69.29;100527.88;5045499;28;20198;-68
2021/07/06 06:56:39;;;;;;;4.53;3.30;;;;;;;24.87;68.42;100530.72;5043983;28;20910;-68
2021/07/06 06:59:08;;;;;;;3.97;3.37;;;;;;;25.17;65.96;100525.00;5047299;28;20241;-68
2021/07/06 07:01:37;;;;;;;3.20;2.90;;;;;;;25.56;64.30;100529.78;5049906;28;20205;-68
2021/07/06 07:04:06;;;;;;;3.30;3.00;;;;;;;25.81;63.07;100521.84;5046780;28;20206;-67
2021/07/06 07:06:34;;;;;;;3.90;3.15;;;;;;;26.11;61.81;100541.56;5043984;28;20210;-67
2021/07/06 07:09:07;;;;;;;3.47;2.70;;;;;;;26.23;61.05;100531.63;5042431;28;20669;-68
2021/07/06 07:11:36;;;;;;;4.57;2.95;;;;;;;26.48;61.31;100529.09;5048278;28;20208;-67
2021/07/06 07:14:04;;;;;;;8.07;2.75;;;;;;;26.68;59.81;100532.69;5047154;28;20680;-68
2021/07/06 07:16:33;;;;;;;3.22;2.90;;;;;;;26.71;59.74;100528.66;5053057;28;20571;-68
2021/07/06 07:19:01;;;;;;;5.13;3.33;;;;;;;26.79;59.54;100518.25;5047714;28;20235;-67
2021/07/06 07:21:31;;;;;;;5.22;3.20;;;;;;;26.80;60.15;100532.88;5047508;28;20276;-67
2021/07/06 07:23:59;;;;;;;5.00;3.10;;;;;;;26.86;58.54;100538.38;5046105;28;20194;-68
2021/07/06 07:26:27;;;;;;;3.20;2.90;;;;;;;26.68;58.55;100537.38;5045911;28;20232;-69
2021/07/06 07:28:57;;;;;;;3.33;2.97;;;;;;;26.77;57.96;100514.88;5048477;28;20664;-68
2021/07/06 07:31:25;;;;;;;3.50;3.03;;;;;;;26.89;58.29;100532.41;5053957;28;20229;-68
2021/07/06 07:33:53;;;;;;;3.42;2.80;;;;;;;26.95;58.36;100538.16;5046213;28;20721;-68
2021/07/06 07:36:21;;;;;;;5.43;3.00;;;;;;;27.22;57.73;100537.00;5041341;28;20207;-68
2021/07/06 07:38:49;;;;;;;3.22;2.90;;;;;;;27.46;56.64;100533.53;5051134;28;20677;-68
2021/07/06 07:41:17;;;;;;;2.92;2.72;;;;;;;27.82;57.00;100532.06;5045453;28;20596;-68
2021/07/06 07:43:46;;;;;;;3.85;2.70;;;;;;;28.27;55.06;100535.63;5047649;28;20593;-67
2021/07/06 07:46:15;;;;;;;4.25;3.00;;;;;;;28.33;55.23;100537.47;5047830;28;20206;-71
2021/07/06 07:48:45;;;;;;;3.15;2.85;;;;;;;28.47;55.51;100545.63;5051488;28;20202;-71
2021/07/06 07:51:13;;;;;;;3.63;3.10;;;;;;;28.89;53.90;100544.00;5055113;28;20194;-71
2021/07/06 07:53:41;;;;;;;2.97;2.67;;;;;;;29.06;52.67;100534.00;5053343;28;20190;-71
2021/07/06 07:56:12;;;;;;;3.35;3.05;;;;;;;29.09;52.41;100539.13;5053554;28;20197;-71
2021/07/06 07:58:44;;;;;;;3.92;3.05;;;;;;;29.03;53.06;100534.47;5053774;28;20205;-70
2021/07/06 08:01:12;;;;;;;6.47;3.58;;;;;;;28.17;53.30;100523.38;5052270;28;20213;-71
2021/07/06 08:03:43;;;;;;;3.90;3.05;;;;;;;27.87;54.02;100526.75;5048073;28;20221;-72
2021/07/06 08:06:12;;;;;;;4.78;3.40;;;;;;;27.87;55.18;100535.03;5048170;28;20640;-69
2021/07/06 08:08:40;;;;;;;4.05;2.95;;;;;;;28.19;55.02;100532.28;5042676;28;20461;-71
2021/07/06 08:11:08;;;;;;;4.15;3.00;;;;;;;28.36;54.25;100538.94;5036361;28;20239;-71
2021/07/06 08:13:40;;;;;;;3.30;2.90;;;;;;;28.67;53.75;100540.78;5045331;28;20578;-71
2021/07/06 08:16:08;;;;;;;3.20;2.88;;;;;;;29.13;53.00;100537.56;5044303;28;20199;-71
2021/07/06 08:18:36;;;;;;;5.47;2.90;;;;;;;29.52;51.30;100527.09;5045930;28;20591;-71
2021/07/06 08:21:12;;;;;;;3.95;2.85;;;;;;;29.92;50.62;100535.69;5043664;28;20211;-68
2021/07/06 08:23:42;;;;;;;3.33;3.03;;;;;;;30.01;49.03;100542.59;5042052;28;20675;-72
2021/07/06 08:26:10;;;;;;;3.60;2.78;;;;;;;30.15;49.09;100543.25;5045481;28;20199;-72
2021/07/06 08:28:38;;;;;;;3.15;2.70;;;;;;;30.35;49.51;100538.22;5044646;28;20277;-67
2021/07/06 08:31:06;;;;;;;3.20;2.90;;;;;;;30.12;49.02;100532.66;5043259;28;20217;-68
2021/07/06 08:33:35;;;;;;;3.30;2.90;;;;;;;30.50;49.33;100533.06;5048414;28;20221;-71
2021/07/06 08:36:03;;;;;;;3.35;3.05;;;;;;;30.79;48.72;100535.97;5050194;28;20256;-68
2021/07/06 08:38:38;;;;;;;4.38;2.85;;;;;;;30.64;48.38;100542.03;5046799;28;20204;-71
2021/07/06 08:41:06;;;;;;;4.25;2.92;;;;;;;30.85;47.31;100540.56;5041043;28;20315;-71
2021/07/06 08:43:35;;;;;;;3.20;2.90;;;;;;;31.10;46.80;100504.22;5046061;28;20197;-71
2021/07/06 08:46:04;;;;;;;3.50;3.13;;;;;;;30.93;46.28;100531.88;5043770;28;20194;-68
2021/07/06 08:48:34;;;;;;;2.92;2.67;;;;;;;31.46;45.58;100539.13;5039945;28;20260;-71
2021/07/06 08:51:04;;;;;;;3.10;2.80;;;;;;;31.73;45.54;100539.44;5043578;28;20447;-70
2021/07/06 08:53:34;;;;;;;3.90;2.80;;;;;;;31.89;45.56;100546.97;5043370;28;20198;-70
2021/07/06 08:56:02;;;;;;;2.83;2.63;;;;;;;32.11;45.23;100541.53;5037892;28;20221;-70
2021/07/06 08:58:30;;;;;;;2.95;2.60;;;;;;;32.37;44.88;100549.25;5040468;28;20754;-71
2021/07/06 09:00:58;;;;;;;3.47;2.90;;;;;;;32.63;44.00;100549.66;5041219;28;20272;-71
2021/07/06 09:03:26;;;;;;;3.40;2.58;;;;;;;32.50;43.37;100555.59;5039951;28;20209;-69
2021/07/06 09:06:06;;;;;;;2.90;2.70;;;;;;;32.66;43.46;100558.34;5043336;28;20202;-70
2021/07/06 09:08:39;;;;;;;2.90;2.60;;;;;;;32.85;43.63;100533.06;5041211;28;20690;-70
2021/07/06 09:11:14;;;;;;;3.13;2.83;;;;;;;32.26;43.86;100550.19;5046034;28;20594;-71
2021/07/06 09:13:43;;;;;;;3.55;3.13;;;;;;;32.07;44.37;100543.13;5044748;28;20197;-71
2021/07/06 09:16:20;;;;;;;2.83;2.63;;;;;;;32.51;44.00;100558.13;5045173;28;20190;-71
2021/07/06 09:18:49;;;;;;;3.17;2.88;;;;;;;32.39;43.27;100554.56;5045531;28;20230;-70
2021/07/06 09:21:17;;;;;;;3.95;2.72;;;;;;;31.85;43.69;100508.84;5049218;28;20210;-70
2021/07/06 09:23:49;;;;;;;2.80;2.60;;;;;;;32.32;43.64;100549.16;5042240;28;20664;-69
2021/07/06 09:26:21;;;;;;;3.10;2.80;;;;;;;31.83;43.29;100547.09;5044480;28;20264;-69
2021/07/06 09:28:50;;;;;;;3.30;2.78;;;;;;;31.33;43.12;100545.84;5037714;28;20209;-69
2021/07/06 09:31:28;;;;;;;3.45;3.15;;;;;;;31.45;43.21;100545.78;5046462;28;20766;-70
2021/07/06 09:34:00;;;;;;;2.95;2.65;;;;;;;31.73;44.40;100545.84;5039681;28;20190;-70
2021/07/06 09:36:32;;;;;;;2.85;2.65;;;;;;;31.60;44.56;100551.66;5048346;28;20731;-70
2021/07/06 09:39:05;;;;;;;4.43;2.67;;;;;;;31.58;44.73;100541.91;5044838;28;20213;-70
2021/07/06 09:41:34;;;;;;;3.00;2.70;;;;;;;31.58;44.91;100547.44;5042903;28;20225;-69
2021/07/06 09:44:24;;;;;;;3.10;2.80;;;;;;;31.12;44.27;100546.44;5062154;28;20296;-69
2021/07/06 09:46:58;;;;;;;3.72;2.95;;;;;;;30.76;45.12;100542.84;5046612;28;20645;-70
2021/07/06 09:49:28;;;;;;;2.78;2.50;;;;;;;30.80;44.88;100508.00;5038565;28;20201;-70
2021/07/06 09:51:59;;;;;;;2.90;2.70;;;;;;;30.95;44.58;100546.34;5041707;28;20209;-71
2021/07/06 09:54:34;;;;;;;2.85;2.65;;;;;;;31.32;45.07;100549.69;5039018;28;20210;-70
2021/07/06 09:57:20;;;;;;;2.67;2.40;;;;;;;31.16;44.91;100540.19;5038688;28;20221;-71
2021/07/06 10:00:04;;;;;;;4.22;3.10;;;;;;;30.75;44.00;100541.16;5036019;28;20268;-70
2021/07/06 10:02:44;;;;;;;2.90;2.60;;;;;;;30.64;45.45;100542.03;5044784;28;20198;-70
2021/07/06 10:05:17;;;;;;;3.85;2.92;;;;;;;30.27;45.69;100530.25;5045590;28;20415;-70
2021/07/06 10:07:45;;;;;;;3.55;2.85;;;;;;;30.28;46.31;100537.47;5041262;28;20755;-71
2021/07/06 10:10:16;;;;;;;3.50;3.03;;;;;;;30.33;46.04;100542.34;5047056;28;20315;-70
2021/07/06 10:12:46;;;;;;;2.85;2.63;;;;;;;30.48;46.32;100537.16;5045454;28;20584;-70
2021/07/06 10:15:16;;;;;;;2.88;2.60;;;;;;;31.04;46.11;100533.78;5045287;28;20434;-70
2021/07/06 10:17:49;;;;;;;3.63;2.60;;;;;;;31.44;46.23;100533.00;5045847;28;20662;-70
2021/07/06 10:20:21;;;;;;;2.78;2.58;;;;;;;31.62;44.84;100527.25;5066237;28;20229;-71
2021/07/06 10:22:51;;;;;;;3.00;2.70;;;;;;;31.51;43.35;100536.47;5041090;28;20210;-71
2021/07/06 10:25:26;;;;;;;4.05;3.00;;;;;;;31.47;44.07;100527.78;5047022;28;20202;-70
2021/07/06 10:27:57;;;;;;;2.90;2.60;;;;;;;31.49;43.96;100530.31;5044995;28;20242;-71
2021/07/06 10:30:30;;;;;;;4.28;3.10;;;;;;;31.21;43.49;100531.13;5049001;28;20589;-71
2021/07/06 10:33:00;;;;;;;3.38;2.95;;;;;;;31.30;44.02;100534.38;5049816;28;20207;-70
2021/07/06 10:35:48;;;;;;;3.97;2.60;;;;;;;30.99;43.10;100535.63;5049102;28;20202;-70
2021/07/06 10:38:45;;;;;;;2.70;2.50;;;;;;;30.81;42.67;100519.94;5044857;28;20302;-70
2021/07/06 10:41:19;;;;;;;3.17;2.88;;;;;;;31.33;43.66;100518.06;5044708;28;20218;-70
2021/07/06 10:43:53;;;;;;;4.93;2.70;;;;;;;31.87;44.03;100524.16;5050840;28;20194;-70
2021/07/06 10:46:44;;;;;;;3.78;2.92;;;;;;;31.54;41.88;100519.34;5044819;28;20288;-70
2021/07/06 10:49:15;;;;;;;3.30;2.97;;;;;;;31.49;43.01;100516.44;5060245;28;20198;-70
2021/07/06 10:51:49;;;;;;;3.10;2.80;;;;;;;31.36;42.75;100516.72;5048141;28;20603;-71
2021/07/06 10:54:26;;;;;;;3.00;2.70;;;;;;;31.35;41.36;100513.09;5045174;28;20197;-71
2021/07/06 10:56:57;;;;;;;3.17;2.88;;;;;;;31.25;42.75;100504.59;5043981;28;20298;-70
2021/07/06 10:59:26;;;;;;;3.30;3.00;;;;;;;31.03;43.55;100507.13;5049331;28;20700;-71
2021/07/06 11:02:00;;;;;;;3.28;2.97;;;;;;;31.34;44.11;100516.13;5045625;28;20224;-71
2021/07/06 11:05:03;;;;;;;3.08;2.75;;;;;;;31.66;42.33;100509.00;5047738;28;20200;-67
2021/07/06 11:07:54;;;;;;;4.43;3.00;;;;;;;31.78;42.24;100514.53;5046022;28;20190;-67
2021/07/06 11:10:41;;;;;;;3.72;3.05;;;;;;;30.85;42.40;100518.38;5047626;28;20276;-67
2021/07/06 11:13:28;;;;;;;3.42;3.00;;;;;;;30.01;44.02;100522.34;5044303;28;20222;-67
2021/07/06 11:15:59;;;;;;;4.15;2.83;;;;;;;30.24;43.81;100505.78;5046553;28;20276;-67
2021/07/06 11:18:35;;;;;;;3.33;3.00;;;;;;;29.94;44.40;100514.97;5046962;28;20640;-67
2021/07/06 11:21:04;;;;;;;3.75;2.95;;;;;;;29.65;45.63;100516.69;5046864;28;20221;-67
2021/07/06 11:23:33;;;;;;;3.30;3.00;;;;;;;29.44;46.53;100521.88;5048908;28;20221;-66
2021/07/06 11:26:04;;;;;;;4.32;3.00;;;;;;;29.49;46.21;100520.13;5045750;28;20225;-66
2021/07/06 11:28:49;;;;;;;4.25;2.85;;;;;;;29.68;46.61;100518.97;5046539;28;20582;-67
2021/07/06 11:31:19;;;;;;;4.38;3.25;;;;;;;29.52;47.08;100513.25;5045519;28;20249;-67
2021/07/06 11:33:48;;;;;;;3.40;3.10;;;;;;;29.46;46.60;100508.66;5046882;28;20279;-71
2021/07/06 11:36:18;;;;;;;3.25;2.92;;;;;;;30.35;46.94;100509.66;5046245;28;20202;-71
2021/07/06 11:38:48;;;;;;;7.78;3.40;;;;;;;30.08;47.25;100509.28;5047425;28;20197;-72